Time;durP1;ratioP1;P1;durP2;ratioP2;P2;SDS_P1;SDS_P2;PMS_P1;PMS_P2;Temp;Humidity;BMP_temperature;BMP_pressure;BME280_temperature;BME280_humidity;BME280_pressure;Samples;Min_cycle;Max_cycle;Signal;HPM_P1;HPM_P2
2022/07/15 00:00:55;;;;;;;4.40;1.27;;;;;;;16.59;58.08;101376.63;5066138;28;20045;-68
2022/07/15 00:03:22;;;;;;;3.33;1.48;;;;;;;16.48;58.46;101376.47;5067933;28;20075;-68
2022/07/15 00:05:48;;;;;;;3.88;1.92;;;;;;;16.69;57.98;101383.00;5066017;28;20040;-68
2022/07/15 00:08:14;;;;;;;3.95;1.13;;;;;;;16.64;58.14;101379.81;5067926;28;20068;-68
2022/07/15 00:10:41;;;;;;;4.93;1.48;;;;;;;16.90;57.77;101380.69;5067525;28;20064;-68
2022/07/15 00:13:07;;;;;;;3.65;1.13;;;;;;;16.72;58.07;101381.94;5067264;28;20086;-68
2022/07/15 00:15:34;;;;;;;5.15;1.40;;;;;;;16.69;58.35;101382.16;5051948;28;20071;-68
2022/07/15 00:18:03;;;;;;;5.05;1.50;;;;;;;16.34;60.24;101385.28;5053124;28;20094;-68
2022/07/15 00:20:33;;;;;;;7.50;1.48;;;;;;;15.89;61.96;101385.63;5067860;28;20127;-68
2022/07/15 00:23:00;;;;;;;4.35;1.60;;;;;;;16.26;60.96;101381.47;5066715;28;20071;-68
2022/07/15 00:25:26;;;;;;;2.92;1.20;;;;;;;15.96;61.91;101386.94;5067283;28;20565;-68
2022/07/15 00:27:54;;;;;;;5.72;1.60;;;;;;;15.97;61.92;101383.31;5058121;28;20044;-68
2022/07/15 00:30:22;;;;;;;4.38;1.45;;;;;;;15.98;62.62;101391.16;5066244;28;20049;-68
2022/07/15 00:32:49;;;;;;;3.08;1.23;;;;;;;16.21;62.31;101375.63;5067104;28;20040;-68
2022/07/15 00:35:17;;;;;;;3.53;1.40;;;;;;;16.10;62.35;101380.75;5067727;28;20040;-68
2022/07/15 00:37:43;;;;;;;3.30;1.35;;;;;;;16.11;62.46;101377.16;5049092;28;20467;-68
2022/07/15 00:40:11;;;;;;;8.48;1.42;;;;;;;16.23;62.23;101389.59;5045704;28;20455;-68
2022/07/15 00:42:46;;;;;;;5.05;1.70;;;;;;;16.32;61.88;101381.91;5048502;28;20106;-68
2022/07/15 00:45:14;;;;;;;10.70;1.77;;;;;;;16.27;61.78;101385.78;5058579;28;20056;-68
2022/07/15 00:47:40;;;;;;;3.83;1.50;;;;;;;16.36;61.54;101375.47;5058069;28;20048;-68
2022/07/15 00:50:08;;;;;;;6.20;1.98;;;;;;;16.38;61.91;101378.84;5051593;28;20094;-68
2022/07/15 00:52:39;;;;;;;6.93;1.92;;;;;;;16.59;60.68;101383.72;5066575;28;20044;-68
2022/07/15 00:55:09;;;;;;;4.07;1.40;;;;;;;16.17;62.99;101376.75;5065802;28;20047;-68
2022/07/15 00:57:38;;;;;;;5.38;1.50;;;;;;;16.17;62.90;101382.91;5066929;28;20173;-68
2022/07/15 01:00:06;;;;;;;4.57;1.40;;;;;;;15.84;64.15;101395.63;5067602;28;20052;-68
2022/07/15 01:02:34;;;;;;;4.30;1.73;;;;;;;15.80;64.74;101397.63;5066080;28;20617;-68
2022/07/15 01:05:04;;;;;;;8.00;1.60;;;;;;;15.84;64.59;101401.78;5066947;28;20655;-68
2022/07/15 01:07:30;;;;;;;5.25;1.48;;;;;;;16.33;62.59;101394.16;5052252;28;20166;-68
2022/07/15 01:09:58;;;;;;;6.75;1.63;;;;;;;16.30;62.89;101391.72;5057699;28;20080;-68
2022/07/15 01:12:25;;;;;;;6.90;1.70;;;;;;;16.20;63.30;101398.56;5066086;28;20098;-68
2022/07/15 01:14:51;;;;;;;7.45;1.80;;;;;;;16.16;63.38;101396.22;5064739;28;20040;-68
2022/07/15 01:17:17;;;;;;;3.60;1.40;;;;;;;16.47;62.28;101382.69;5065381;28;20047;-68
2022/07/15 01:19:44;;;;;;;7.10;1.48;;;;;;;15.92;64.15;101396.00;5065851;28;20036;-68
2022/07/15 01:22:12;;;;;;;3.67;1.25;;;;;;;15.73;64.84;101392.81;5064707;28;20045;-68
2022/07/15 01:24:38;;;;;;;4.93;1.92;;;;;;;15.57;65.56;101393.78;5067870;28;20565;-68
2022/07/15 01:27:04;;;;;;;6.05;1.38;;;;;;;15.40;66.36;101393.94;5066317;28;20067;-68
2022/07/15 01:29:31;;;;;;;5.32;1.60;;;;;;;15.34;66.23;101404.88;5065950;28;20565;-68
2022/07/15 01:31:57;;;;;;;5.68;1.80;;;;;;;15.26;66.51;101401.84;5066699;28;20052;-69
2022/07/15 01:34:23;;;;;;;5.10;2.17;;;;;;;15.60;65.66;101400.66;5065406;28;20380;-69
2022/07/15 01:36:50;;;;;;;5.03;1.38;;;;;;;15.27;66.42;101410.63;5062404;28;20068;-69
2022/07/15 01:39:17;;;;;;;7.80;1.85;;;;;;;15.43;66.29;101406.97;5048132;28;20416;-69
2022/07/15 01:41:44;;;;;;;6.18;1.33;;;;;;;15.82;64.82;101408.09;5049895;28;20077;-69
2022/07/15 01:44:13;;;;;;;6.35;1.70;;;;;;;15.99;64.24;101410.53;5050700;28;20436;-69
2022/07/15 01:46:40;;;;;;;4.50;1.60;;;;;;;15.94;64.37;101412.63;5051722;28;20122;-69
2022/07/15 01:49:26;;;;;;;2.72;1.33;;;;;;;15.86;64.82;101417.53;5069596;28;20044;-69
2022/07/15 01:51:54;;;;;;;4.03;1.33;;;;;;;15.14;67.44;101413.16;5068581;28;20468;-68
2022/07/15 01:54:22;;;;;;;6.30;1.42;;;;;;;15.62;65.75;101414.66;5070350;28;20523;-68
2022/07/15 01:56:49;;;;;;;4.28;1.45;;;;;;;16.22;63.70;101414.38;5068992;28;20040;-68
2022/07/15 01:59:15;;;;;;;5.38;1.80;;;;;;;16.08;63.69;101418.72;5069774;28;20110;-68
2022/07/15 02:01:42;;;;;;;6.10;1.48;;;;;;;15.91;64.34;101416.31;5068760;28;20496;-68
2022/07/15 02:04:08;;;;;;;8.57;1.92;;;;;;;16.18;63.17;101413.72;5070753;28;20551;-68
2022/07/15 02:06:35;;;;;;;8.75;1.73;;;;;;;15.57;65.94;101417.56;5052713;28;20496;-68
2022/07/15 02:09:01;;;;;;;9.75;1.63;;;;;;;15.18;67.34;101412.03;5049202;28;20091;-68
2022/07/15 02:11:29;;;;;;;7.05;1.50;;;;;;;15.11;67.46;101408.06;5061386;28;20044;-68
2022/07/15 02:13:58;;;;;;;8.77;2.25;;;;;;;15.04;67.90;101402.28;5068660;28;20480;-68
2022/07/15 02:16:25;;;;;;;5.95;1.83;;;;;;;15.02;67.92;101403.31;5068674;28;20129;-68
2022/07/15 02:18:51;;;;;;;5.57;1.75;;;;;;;15.08;67.98;101400.31;5070138;28;20545;-68
2022/07/15 02:21:18;;;;;;;6.57;1.50;;;;;;;15.02;67.43;101401.53;5070100;28;20105;-68
2022/07/15 02:23:44;;;;;;;6.95;1.60;;;;;;;14.45;70.19;101412.84;5069309;28;20045;-68
2022/07/15 02:26:11;;;;;;;6.03;2.05;;;;;;;14.57;69.55;101401.59;5069086;28;20090;-68
2022/07/15 02:28:38;;;;;;;5.57;1.63;;;;;;;14.64;69.56;101400.28;5068863;28;20097;-68
2022/07/15 02:31:05;;;;;;;6.32;1.42;;;;;;;14.67;69.20;101408.03;5068363;28;20064;-68
2022/07/15 02:33:32;;;;;;;7.82;1.40;;;;;;;14.68;69.28;101403.59;5069192;28;20044;-68
2022/07/15 02:35:58;;;;;;;7.63;1.65;;;;;;;14.88;68.91;101408.56;5068315;28;20475;-68
2022/07/15 02:38:25;;;;;;;8.40;1.63;;;;;;;15.52;66.66;101414.34;5050748;28;20134;-68
2022/07/15 02:40:51;;;;;;;6.53;1.60;;;;;;;15.56;66.28;101418.50;5048383;28;20510;-68
2022/07/15 02:43:18;;;;;;;7.53;1.42;;;;;;;15.77;65.84;101423.41;5047542;28;20064;-68
2022/07/15 02:45:45;;;;;;;5.32;1.77;;;;;;;15.26;66.77;101420.31;5061650;28;20049;-68
2022/07/15 02:48:12;;;;;;;4.82;1.35;;;;;;;15.53;66.42;101416.06;5053192;28;20500;-68
2022/07/15 02:50:38;;;;;;;9.43;1.55;;;;;;;15.34;66.76;101419.88;5067940;28;20129;-68
2022/07/15 02:53:05;;;;;;;4.85;1.30;;;;;;;15.41;66.31;101427.34;5067556;28;20045;-68
2022/07/15 02:55:31;;;;;;;5.32;1.63;;;;;;;15.56;66.16;101421.13;5069020;28;20064;-68
2022/07/15 02:57:58;;;;;;;8.57;2.25;;;;;;;15.61;65.10;101431.44;5068265;28;20045;-68
2022/07/15 03:00:24;;;;;;;3.95;1.33;;;;;;;15.67;65.28;101432.88;5067302;28;20037;-68
2022/07/15 03:02:52;;;;;;;7.80;1.55;;;;;;;15.62;65.51;101424.38;5069836;28;20177;-68
2022/07/15 03:05:19;;;;;;;5.32;1.60;;;;;;;15.91;64.42;101426.91;5068913;28;20484;-69
2022/07/15 03:07:46;;;;;;;9.07;1.42;;;;;;;16.15;64.13;101428.94;5050635;28;20041;-68
2022/07/15 03:10:13;;;;;;;9.00;1.83;;;;;;;15.92;64.26;101431.25;5048208;28;20045;-68
2022/07/15 03:12:40;;;;;;;9.63;1.42;;;;;;;15.74;64.66;101429.72;5047820;28;20049;-68
2022/07/15 03:15:08;;;;;;;12.02;1.52;;;;;;;15.95;64.05;101428.41;5047446;28;20045;-68
2022/07/15 03:17:34;;;;;;;9.50;1.50;;;;;;;15.99;63.87;101439.63;5059383;28;20052;-68
2022/07/15 03:20:02;;;;;;;5.35;1.48;;;;;;;15.84;64.54;101440.59;5067024;28;20098;-68
2022/07/15 03:22:29;;;;;;;5.53;1.45;;;;;;;15.73;64.95;101441.25;5067074;28;20641;-68
2022/07/15 03:24:55;;;;;;;5.72;1.20;;;;;;;15.97;63.81;101445.00;5069280;28;20076;-68
2022/07/15 03:27:22;;;;;;;4.40;1.60;;;;;;;15.87;64.47;101445.69;5068634;28;20052;-68
2022/07/15 03:29:49;;;;;;;9.90;1.55;;;;;;;15.80;64.78;101452.31;5049456;28;20107;-68
2022/07/15 03:32:16;;;;;;;6.13;1.48;;;;;;;15.87;63.84;101446.53;5048538;28;20053;-68
2022/07/15 03:34:42;;;;;;;5.90;1.60;;;;;;;15.32;66.31;101454.31;5046499;28;20416;-68
2022/07/15 03:37:11;;;;;;;4.45;1.42;;;;;;;15.89;64.60;101447.28;5043165;28;20103;-68
2022/07/15 03:39:37;;;;;;;7.32;1.83;;;;;;;15.91;63.87;101447.19;5047771;28;20044;-68
2022/07/15 03:42:04;;;;;;;5.07;1.83;;;;;;;15.92;64.14;101443.63;5047829;28;20045;-68
2022/07/15 03:44:30;;;;;;;6.47;1.27;;;;;;;15.36;66.42;101450.56;5047863;28;20041;-68
2022/07/15 03:46:57;;;;;;;7.50;1.63;;;;;;;15.71;65.22;101452.88;5047360;28;20045;-68
2022/07/15 03:49:23;;;;;;;6.57;2.38;;;;;;;15.69;65.70;101452.13;5046076;28;20080;-68
2022/07/15 03:51:49;;;;;;;12.50;2.30;;;;;;;15.63;65.50;101445.41;5047628;28;20045;-68
2022/07/15 03:54:17;;;;;;;5.88;1.38;;;;;;;15.96;64.54;101445.13;5047100;28;20062;-68
2022/07/15 03:56:47;;;;;;;10.18;1.83;;;;;;;15.83;64.60;101454.75;5047531;28;20076;-68
2022/07/15 03:59:13;;;;;;;10.32;1.50;;;;;;;16.01;64.75;101453.59;5050261;28;20518;-68
2022/07/15 04:01:40;;;;;;;6.50;1.50;;;;;;;15.74;65.39;101453.53;5047930;28;20099;-68
2022/07/15 04:04:06;;;;;;;10.90;1.42;;;;;;;16.01;64.67;101462.38;5047110;28;20048;-68
2022/07/15 04:06:33;;;;;;;11.88;1.60;;;;;;;15.77;65.86;101458.66;5046805;28;20049;-68
2022/07/15 04:08:59;;;;;;;9.32;1.58;;;;;;;15.99;65.12;101460.81;5048477;28;20424;-68
2022/07/15 04:11:27;;;;;;;5.03;1.30;;;;;;;16.05;64.61;101470.97;5046661;28;20500;-68
2022/07/15 04:13:53;;;;;;;5.13;1.00;;;;;;;15.88;65.38;101458.81;5045538;28;20049;-68
2022/07/15 04:16:20;;;;;;;8.27;1.60;;;;;;;15.87;65.59;101472.13;5045882;28;20053;-68
2022/07/15 04:18:46;;;;;;;13.10;1.55;;;;;;;15.90;66.19;101469.28;5046375;28;20048;-68
2022/07/15 04:21:13;;;;;;;7.32;1.40;;;;;;;15.62;66.51;101466.66;5047730;28;20048;-68
2022/07/15 04:23:39;;;;;;;8.52;1.80;;;;;;;15.61;66.43;101470.25;5061083;28;20507;-68
2022/07/15 04:26:06;;;;;;;7.00;1.42;;;;;;;16.02;65.39;101466.75;5057577;28;20045;-68
2022/07/15 04:28:33;;;;;;;7.35;1.92;;;;;;;16.35;64.47;101469.03;5058508;28;20121;-68
2022/07/15 04:31:00;;;;;;;6.60;1.73;;;;;;;16.48;64.18;101475.22;5064606;28;20422;-68
2022/07/15 04:33:27;;;;;;;8.07;1.38;;;;;;;16.72;63.68;101475.47;5066562;28;20446;-68
2022/07/15 04:35:54;;;;;;;6.13;1.20;;;;;;;16.75;61.84;101471.78;5065018;28;20102;-68
2022/07/15 04:38:21;;;;;;;6.85;1.67;;;;;;;16.28;63.82;101482.78;5065421;28;20044;-68
2022/07/15 04:40:47;;;;;;;5.43;1.67;;;;;;;16.22;63.84;101476.06;5065224;28;20492;-68
2022/07/15 04:43:14;;;;;;;10.13;1.27;;;;;;;16.42;63.27;101478.28;5067315;28;20524;-68
2022/07/15 04:45:41;;;;;;;7.93;1.80;;;;;;;16.82;62.35;101487.16;5065447;28;20063;-68
2022/07/15 04:50:51;;;;;;;10.07;1.60;;;;;;;16.74;62.63;101475.41;5065262;28;20101;-68
2022/07/15 04:53:18;;;;;;;5.72;1.40;;;;;;;16.96;60.71;101479.16;5065738;28;20048;-68
2022/07/15 04:55:49;;;;;;;8.55;1.83;;;;;;;16.69;62.92;101480.97;5066771;28;20044;-68
2022/07/15 04:58:16;;;;;;;5.47;1.25;;;;;;;16.40;62.53;101482.00;5066389;28;20657;-68
2022/07/15 05:00:46;;;;;;;11.45;1.90;;;;;;;16.38;62.38;101497.09;5065672;28;20098;-68
2022/07/15 05:03:12;;;;;;;4.55;1.40;;;;;;;16.71;62.27;101496.75;5068043;28;20492;-68
2022/07/15 05:05:39;;;;;;;6.63;1.73;;;;;;;16.80;61.92;101488.22;5065738;28;20508;-68
2022/07/15 05:08:06;;;;;;;4.45;1.25;;;;;;;16.98;61.22;101494.94;5065262;28;20079;-68
2022/07/15 05:10:32;;;;;;;5.18;1.10;;;;;;;17.14;59.71;101490.34;5065902;28;20059;-68
2022/07/15 05:12:59;;;;;;;7.53;1.27;;;;;;;16.83;60.71;101493.31;5059205;28;20080;-68
2022/07/15 05:15:26;;;;;;;5.68;1.17;;;;;;;17.14;60.58;101493.00;5070000;28;20040;-68
2022/07/15 05:17:53;;;;;;;9.07;1.30;;;;;;;17.47;59.42;101503.13;5070426;28;20476;-68
2022/07/15 05:20:21;;;;;;;9.32;1.30;;;;;;;16.97;59.67;101509.16;5069875;28;20048;-68
2022/07/15 05:22:48;;;;;;;12.13;1.55;;;;;;;17.55;59.50;101499.94;5069532;28;20045;-69
2022/07/15 05:25:14;;;;;;;5.40;1.00;;;;;;;17.44;59.78;101512.09;5070725;28;20068;-69
2022/07/15 05:27:41;;;;;;;8.38;1.27;;;;;;;17.74;58.58;101510.97;5068473;28;20492;-69
2022/07/15 05:30:09;;;;;;;8.35;1.30;;;;;;;18.27;57.30;101510.72;5069403;28;20044;-69
2022/07/15 05:32:35;;;;;;;3.67;1.10;;;;;;;18.31;56.14;101512.19;5070259;28;20044;-69
2022/07/15 05:35:03;;;;;;;6.53;1.27;;;;;;;18.62;55.16;101515.34;5069442;28;20470;-69
2022/07/15 05:37:29;;;;;;;9.75;1.63;;;;;;;19.02;54.52;101508.78;5069535;28;20048;-69
2022/07/15 05:39:57;;;;;;;9.82;1.40;;;;;;;18.90;53.34;101499.91;5069982;28;20098;-69
2022/07/15 05:42:24;;;;;;;5.07;1.20;;;;;;;19.34;54.49;101511.66;5069116;28;20056;-69
2022/07/15 05:44:51;;;;;;;8.57;1.60;;;;;;;19.34;53.47;101515.16;5069814;28;20110;-68
2022/07/15 05:47:17;;;;;;;8.10;1.20;;;;;;;18.91;54.40;101522.00;5071028;28;20078;-68
2022/07/15 05:49:43;;;;;;;6.28;1.27;;;;;;;18.96;53.25;101526.00;5070019;28;20091;-68
2022/07/15 05:52:11;;;;;;;4.82;1.70;;;;;;;19.21;53.27;101517.06;5069018;28;20468;-68
2022/07/15 05:54:37;;;;;;;5.28;1.52;;;;;;;19.37;52.42;101525.56;5069104;28;20059;-68
2022/07/15 05:57:04;;;;;;;5.35;1.10;;;;;;;19.39;52.03;101521.00;5068611;28;20046;-67
2022/07/15 05:59:31;;;;;;;7.63;1.85;;;;;;;19.88;51.84;101525.22;5058033;28;20041;-67
2022/07/15 06:01:57;;;;;;;5.82;1.10;;;;;;;19.80;51.89;101527.63;5050201;28;20079;-67
2022/07/15 06:04:26;;;;;;;4.90;1.30;;;;;;;20.26;51.03;101533.69;5049681;28;20045;-67
2022/07/15 06:06:52;;;;;;;4.45;1.52;;;;;;;20.24;49.77;101530.31;5048213;28;20519;-67
2022/07/15 06:09:20;;;;;;;6.40;1.00;;;;;;;20.12;49.93;101538.41;5048784;28;20045;-67
2022/07/15 06:11:46;;;;;;;5.88;1.02;;;;;;;20.09;49.97;101534.19;5053930;28;20051;-67
2022/07/15 06:14:13;;;;;;;10.40;1.35;;;;;;;19.68;50.73;101534.75;5067049;28;20049;-67
2022/07/15 06:16:39;;;;;;;8.00;1.10;;;;;;;19.46;52.06;101534.69;5055017;28;20044;-67
2022/07/15 06:19:08;;;;;;;6.57;0.90;;;;;;;19.70;51.27;101546.09;5067798;28;20044;-67
2022/07/15 06:21:34;;;;;;;8.23;1.33;;;;;;;20.24;49.56;101535.63;5068099;28;20496;-67
2022/07/15 06:24:01;;;;;;;4.18;1.20;;;;;;;19.99;50.72;101543.88;5068633;28;20072;-67
2022/07/15 06:26:29;;;;;;;5.13;0.88;;;;;;;20.30;49.25;101542.31;5068432;28;20045;-68
2022/07/15 06:28:55;;;;;;;10.15;1.15;;;;;;;20.44;49.17;101543.84;5059665;28;20408;-67
2022/07/15 06:31:21;;;;;;;5.47;1.13;;;;;;;20.33;49.25;101540.25;5053294;28;20111;-67
2022/07/15 06:33:48;;;;;;;6.65;1.20;;;;;;;20.60;49.35;101539.00;5067901;28;20048;-68
2022/07/15 06:36:14;;;;;;;9.80;2.17;;;;;;;20.28;49.67;101541.59;5068836;28;20075;-67
2022/07/15 06:38:40;;;;;;;10.80;1.48;;;;;;;20.96;50.13;101543.97;5069811;28;20396;-67
2022/07/15 06:41:07;;;;;;;6.22;1.23;;;;;;;21.05;47.46;101539.72;5067506;28;20045;-67
2022/07/15 06:43:35;;;;;;;6.18;0.90;;;;;;;20.85;47.58;101542.19;5068445;28;20044;-67
2022/07/15 06:46:01;;;;;;;6.95;0.93;;;;;;;20.76;48.22;101544.78;5069145;28;20508;-67
2022/07/15 06:48:27;;;;;;;5.03;1.00;;;;;;;20.99;46.43;101546.38;5066540;28;20101;-67
2022/07/15 06:50:53;;;;;;;6.43;1.25;;;;;;;20.69;47.46;101549.78;5068373;28;20056;-67
2022/07/15 06:53:20;;;;;;;6.18;1.10;;;;;;;20.37;47.92;101544.34;5068760;28;20117;-67
2022/07/15 06:55:46;;;;;;;3.05;0.80;;;;;;;20.29;48.21;101548.59;5068786;28;20041;-67
2022/07/15 06:58:13;;;;;;;4.78;0.80;;;;;;;20.62;49.59;101553.06;5067209;28;20076;-67
2022/07/15 07:00:40;;;;;;;5.40;0.93;;;;;;;20.82;48.08;101537.13;5077545;28;20044;-67
2022/07/15 07:03:07;;;;;;;7.60;1.13;;;;;;;21.48;46.86;101536.97;5053634;28;20084;-67
2022/07/15 07:05:33;;;;;;;5.30;0.80;;;;;;;21.38;45.67;101538.75;5067307;28;20045;-67
2022/07/15 07:07:59;;;;;;;7.65;1.33;;;;;;;21.51;46.94;101545.56;5068613;28;20458;-67
2022/07/15 07:10:26;;;;;;;5.45;1.30;;;;;;;22.44;44.80;101545.50;5067245;28;20403;-66
2022/07/15 07:12:53;;;;;;;7.13;0.90;;;;;;;22.82;41.39;101547.47;5068014;28;20048;-66
2022/07/15 07:15:20;;;;;;;5.68;0.80;;;;;;;22.77;39.74;101546.03;5060528;28;20091;-67
2022/07/15 07:17:48;;;;;;;4.18;0.88;;;;;;;21.72;41.13;101545.59;5067870;28;20051;-67
2022/07/15 07:20:15;;;;;;;7.97;0.82;;;;;;;20.59;43.52;101553.28;5068161;28;20487;-67
2022/07/15 07:22:41;;;;;;;3.03;0.80;;;;;;;20.37;43.89;101563.00;5067697;28;20081;-67
2022/07/15 07:25:08;;;;;;;2.33;0.60;;;;;;;20.07;44.51;101557.41;5066711;28;20056;-68
2022/07/15 07:27:35;;;;;;;5.45;0.73;;;;;;;20.17;44.48;101558.38;5067987;28;20044;-68
2022/07/15 07:30:04;;;;;;;5.35;0.80;;;;;;;19.66;45.13;101562.44;5061527;28;20068;-67
2022/07/15 07:32:30;;;;;;;4.75;0.90;;;;;;;19.87;45.76;101566.09;5064780;28;20063;-67
2022/07/15 07:34:58;;;;;;;3.72;1.08;;;;;;;19.79;46.64;101556.06;5067995;28;20041;-67
2022/07/15 07:37:26;;;;;;;5.57;1.00;;;;;;;19.88;47.54;101557.97;5067474;28;20147;-67
2022/07/15 07:39:53;;;;;;;5.18;1.02;;;;;;;20.04;47.07;101557.63;5066411;28;20043;-67
2022/07/15 07:42:20;;;;;;;8.63;1.98;;;;;;;20.07;47.42;101543.22;5065722;28;20067;-68
2022/07/15 07:44:47;;;;;;;25.75;7.15;;;;;;;20.50;48.35;101548.72;5063804;28;20049;-68
2022/07/15 07:47:13;;;;;;;4.40;1.20;;;;;;;20.82;44.82;101541.59;5065231;28;20056;-68
2022/07/15 07:49:39;;;;;;;5.53;1.00;;;;;;;21.08;42.78;101542.97;5066026;28;20040;-68
2022/07/15 07:52:07;;;;;;;6.50;0.98;;;;;;;20.92;43.42;101539.88;5067729;28;20106;-68
2022/07/15 07:54:34;;;;;;;3.20;0.88;;;;;;;21.05;42.27;101539.72;5067896;28;20268;-68
2022/07/15 07:57:00;;;;;;;7.47;1.55;;;;;;;21.18;43.06;101540.41;5068289;28;20454;-68
2022/07/15 07:59:26;;;;;;;3.65;0.82;;;;;;;20.69;43.79;101547.09;5065906;28;20455;-68
2022/07/15 08:01:53;;;;;;;6.63;1.60;;;;;;;20.36;43.85;101545.31;5052993;28;20090;-68
2022/07/15 08:04:19;;;;;;;5.88;1.70;;;;;;;20.24;44.88;101554.28;5047892;28;20045;-68
2022/07/15 08:06:46;;;;;;;8.88;1.20;;;;;;;20.53;45.58;101561.78;5045805;28;20048;-68
2022/07/15 08:09:14;;;;;;;4.95;1.00;;;;;;;20.56;43.83;101542.88;5046316;28;20048;-67
2022/07/15 08:11:41;;;;;;;6.60;1.25;;;;;;;20.44;45.63;101542.03;5047554;28;20132;-68
2022/07/15 08:14:07;;;;;;;5.35;1.02;;;;;;;20.87;44.77;101545.59;5049111;28;20095;-67
2022/07/15 08:16:34;;;;;;;6.40;1.38;;;;;;;20.74;44.79;101550.22;5057355;28;20098;-68
2022/07/15 08:19:00;;;;;;;6.13;0.82;;;;;;;20.42;44.75;101551.13;5049780;28;20048;-67
2022/07/15 08:21:26;;;;;;;4.80;1.15;;;;;;;20.31;44.09;101555.50;5066996;28;20044;-67
2022/07/15 08:23:54;;;;;;;5.45;1.05;;;;;;;20.63;43.99;101560.91;5066032;28;20121;-67
2022/07/15 08:26:23;;;;;;;5.43;1.00;;;;;;;20.14;43.88;101545.28;5067932;28;20047;-67
2022/07/15 08:28:50;;;;;;;3.22;0.63;;;;;;;20.38;44.59;101555.84;5065414;28;20442;-67
2022/07/15 08:31:17;;;;;;;7.18;1.35;;;;;;;20.24;44.66;101546.28;5047146;28;20053;-67
2022/07/15 08:33:43;;;;;;;7.75;1.20;;;;;;;20.35;43.14;101559.63;5046723;28;20056;-67
2022/07/15 08:36:09;;;;;;;4.25;0.68;;;;;;;20.15;43.55;101551.47;5046950;28;20044;-67
2022/07/15 08:38:36;;;;;;;4.63;0.80;;;;;;;20.05;44.38;101545.19;5046703;28;20041;-67
2022/07/15 08:41:02;;;;;;;5.65;0.85;;;;;;;20.09;44.13;101543.97;5054593;28;20094;-67
2022/07/15 08:43:30;;;;;;;5.95;1.20;;;;;;;20.03;45.61;101542.63;5066530;28;20116;-68
2022/07/15 08:45:56;;;;;;;3.28;0.93;;;;;;;20.18;45.87;101543.22;5065151;28;20053;-68
2022/07/15 08:48:26;;;;;;;6.10;1.20;;;;;;;20.53;41.91;101549.31;5066974;28;20040;-68
2022/07/15 08:50:54;;;;;;;3.47;0.60;;;;;;;21.14;41.65;101552.31;5066564;28;20072;-71
2022/07/15 08:53:21;;;;;;;6.70;1.42;;;;;;;21.04;41.60;101544.19;5066180;28;20059;-67
2022/07/15 08:55:48;;;;;;;5.38;1.30;;;;;;;21.50;42.58;101545.72;5067157;28;20045;-67
2022/07/15 08:58:14;;;;;;;3.60;0.82;;;;;;;21.23;41.10;101549.72;5067369;28;20673;-67
2022/07/15 09:00:42;;;;;;;3.00;1.15;;;;;;;20.58;41.13;101556.94;5065405;28;20109;-67
2022/07/15 09:03:09;;;;;;;5.13;0.95;;;;;;;20.47;42.65;101555.13;5066999;28;20045;-67
2022/07/15 09:05:37;;;;;;;5.50;0.90;;;;;;;20.79;42.97;101560.53;5067337;28;21877;-67
2022/07/15 09:08:05;;;;;;;4.35;0.75;;;;;;;20.77;43.15;101565.09;5065101;28;20075;-67
2022/07/15 09:10:44;;;;;;;3.17;0.82;;;;;;;20.78;43.26;101558.81;5065694;28;20528;-67
2022/07/15 09:13:11;;;;;;;4.05;0.80;;;;;;;20.64;43.29;101561.75;5065765;28;20072;-67
2022/07/15 09:15:39;;;;;;;3.95;0.80;;;;;;;20.50;43.63;101564.69;5066305;28;20049;-68
2022/07/15 09:18:11;;;;;;;4.75;0.90;;;;;;;20.09;44.25;101562.63;5066431;28;20110;-67
2022/07/15 09:20:39;;;;;;;5.95;0.85;;;;;;;20.48;43.68;101563.94;5064585;28;20497;-68
2022/07/15 09:23:05;;;;;;;4.97;0.90;;;;;;;20.81;44.10;101555.91;5066501;28;20041;-67
2022/07/15 09:25:36;;;;;;;4.60;0.75;;;;;;;21.30;43.08;101555.41;5066181;28;20064;-67
2022/07/15 09:28:04;;;;;;;3.75;1.23;;;;;;;21.33;43.42;101553.31;5067913;28;20079;-67
2022/07/15 09:33:35;;;;;;;2.63;0.68;;;;;;;21.70;40.58;101558.19;5036675;28;20071;-67
2022/07/15 09:36:12;;;;;;;3.85;1.08;;;;;;;21.02;42.63;101571.97;5045187;28;20087;-67
2022/07/15 09:38:44;;;;;;;3.25;1.30;;;;;;;20.71;43.37;101565.63;5044858;28;20044;-67
2022/07/15 09:41:26;;;;;;;6.18;1.00;;;;;;;20.62;42.12;101569.03;5045687;28;20456;-67
2022/07/15 09:43:54;;;;;;;9.48;1.75;;;;;;;20.37;43.45;101571.00;5045505;28;20068;-67
2022/07/15 09:46:22;;;;;;;6.15;2.03;;;;;;;20.70;41.31;101574.56;5045513;28;20115;-67
2022/07/15 09:48:52;;;;;;;6.72;1.10;;;;;;;20.38;41.96;101567.38;5034781;28;20049;-67
2022/07/15 09:51:19;;;;;;;3.03;0.77;;;;;;;20.24;41.78;101572.91;5044531;28;20066;-67
2022/07/15 09:53:46;;;;;;;5.00;1.20;;;;;;;20.51;42.48;101569.88;5044915;28;20069;-67
2022/07/15 09:56:15;;;;;;;3.50;0.75;;;;;;;21.39;44.27;101567.13;5045432;28;20072;-67
2022/07/15 09:58:42;;;;;;;9.30;1.15;;;;;;;22.48;41.12;101573.66;5047943;28;20094;-67
2022/07/15 10:01:11;;;;;;;6.53;1.17;;;;;;;22.92;40.33;101561.69;5068485;28;20044;-67
2022/07/15 10:03:38;;;;;;;6.60;0.90;;;;;;;22.96;40.33;101553.25;5069202;28;20044;-67
2022/07/15 10:06:06;;;;;;;6.07;1.27;;;;;;;23.35;37.76;101551.44;5069951;28;20473;-67
2022/07/15 10:08:36;;;;;;;5.07;0.70;;;;;;;23.11;37.55;101564.38;5068852;28;20045;-67
2022/07/15 10:11:10;;;;;;;3.80;0.60;;;;;;;22.08;38.69;101558.47;5068617;28;20095;-67
2022/07/15 10:13:49;;;;;;;5.20;1.17;;;;;;;22.13;37.55;101564.25;5068804;28;20048;-67
2022/07/15 10:16:35;;;;;;;8.57;0.77;;;;;;;21.90;38.23;101564.50;5061355;28;20098;-68
2022/07/15 10:19:10;;;;;;;4.32;0.70;;;;;;;21.88;38.86;101561.16;5066791;28;20037;-67
2022/07/15 10:21:44;;;;;;;3.88;0.73;;;;;;;21.39;39.63;101567.97;5067532;28;20102;-67
2022/07/15 10:24:26;;;;;;;4.50;1.15;;;;;;;21.74;41.53;101567.66;5068349;28;20045;-67
2022/07/15 10:27:10;;;;;;;3.45;0.65;;;;;;;21.42;39.39;101561.53;5069742;28;20094;-67
2022/07/15 10:29:37;;;;;;;4.95;0.93;;;;;;;21.27;39.21;101569.84;5071074;28;20499;-68
2022/07/15 10:32:03;;;;;;;4.60;0.65;;;;;;;21.16;40.00;101571.72;5068915;28;20106;-67
2022/07/15 10:34:32;;;;;;;9.07;1.02;;;;;;;20.79;41.52;101574.69;5069203;28;20049;-67
2022/07/15 10:37:06;;;;;;;4.47;1.17;;;;;;;21.08;40.69;101572.31;5069113;28;20553;-67
2022/07/15 10:39:51;;;;;;;5.75;0.93;;;;;;;21.37;39.76;101572.56;5066972;28;20047;-68
2022/07/15 10:42:18;;;;;;;1.95;0.60;;;;;;;21.67;39.27;101564.66;5068744;28;20075;-68
2022/07/15 10:45:05;;;;;;;4.85;1.00;;;;;;;21.63;40.45;101567.72;5059608;28;20566;-67
2022/07/15 10:47:31;;;;;;;3.33;0.68;;;;;;;21.67;38.94;101566.47;5067838;28;20093;-68
2022/07/15 10:49:58;;;;;;;6.07;0.73;;;;;;;21.79;41.50;101562.78;5068395;28;20044;-67
2022/07/15 10:52:27;;;;;;;6.68;1.10;;;;;;;21.77;39.86;101551.34;5067403;28;20102;-68
2022/07/15 10:55:04;;;;;;;2.53;0.80;;;;;;;21.30;39.88;101566.06;5068909;28;20056;-68
2022/07/15 10:57:52;;;;;;;3.60;0.90;;;;;;;21.32;38.96;101567.63;5067814;28;20039;-68
2022/07/15 11:00:32;;;;;;;4.63;0.80;;;;;;;21.21;39.65;101570.34;5063415;28;20508;-67
2022/07/15 11:03:03;;;;;;;3.88;0.90;;;;;;;21.60;39.69;101559.97;5047886;28;20109;-68
2022/07/15 11:05:31;;;;;;;5.95;1.25;;;;;;;21.99;38.36;101561.91;5047449;28;20041;-68
2022/07/15 11:07:59;;;;;;;3.08;0.80;;;;;;;21.99;38.37;101567.25;5046943;28;20135;-70
2022/07/15 11:10:25;;;;;;;4.75;0.82;;;;;;;21.95;39.19;101557.81;5071805;28;20044;-68
2022/07/15 11:13:00;;;;;;;2.58;0.60;;;;;;;21.58;40.87;101559.28;5068059;28;20121;-68
2022/07/15 11:15:27;;;;;;;5.00;0.98;;;;;;;21.59;40.61;101566.28;5059784;28;20037;-67
2022/07/15 11:17:56;;;;;;;3.08;0.80;;;;;;;21.61;40.25;101567.84;5054897;28;20097;-68
2022/07/15 11:20:25;;;;;;;1.60;0.52;;;;;;;21.46;41.39;101576.31;5067416;28;20087;-68
2022/07/15 11:22:56;;;;;;;4.50;0.90;;;;;;;21.13;41.88;101570.16;5067320;28;20412;-68
2022/07/15 11:25:26;;;;;;;3.78;0.70;;;;;;;20.89;43.27;101574.78;5067292;28;20044;-68
2022/07/15 11:28:01;;;;;;;6.82;0.95;;;;;;;20.93;42.81;101570.91;5065882;28;20113;-69
2022/07/15 11:30:29;;;;;;;4.47;0.77;;;;;;;21.34;42.91;101564.84;5066948;28;20071;-68
2022/07/15 11:32:56;;;;;;;6.20;1.25;;;;;;;21.43;42.30;101569.41;5066807;28;20036;-68